Time;durP1;ratioP1;P1;durP2;ratioP2;P2;SDS_P1;SDS_P2;PMS_P1;PMS_P2;Temp;Humidity;BMP_temperature;BMP_pressure;BME280_temperature;BME280_humidity;BME280_pressure;Samples;Min_cycle;Max_cycle;Signal;HPM_P1;HPM_P2
2020/12/01 00:01:48;;;;;;;;;;;-0.30;99.90;;;;;;5109153;28;20001;-82
2020/12/01 00:04:13;;;;;;;;;;;-0.30;99.90;;;;;;5110175;28;19903;-79
2020/12/01 00:06:39;;;;;;;;;;;-0.30;99.90;;;;;;5108726;28;19915;-79
2020/12/01 00:09:04;;;;;;;;;;;-0.20;99.90;;;;;;5109313;28;20375;-81
2020/12/01 00:11:30;;;;;;;;;;;-0.20;99.90;;;;;;5109121;28;19912;-81
2020/12/01 00:14:00;;;;;;;;;;;-0.20;99.90;;;;;;5109187;28;19912;-82
2020/12/01 00:16:26;;;;;;;;;;;-0.20;99.90;;;;;;5109952;28;20242;-80
2020/12/01 00:18:51;;;;;;;;;;;-0.20;99.90;;;;;;5112973;28;19921;-82
2020/12/01 00:21:18;;;;;;;;;;;-0.20;99.90;;;;;;5112885;28;19912;-81
2020/12/01 00:23:46;;;;;;;;;;;-0.20;99.90;;;;;;5113071;28;19939;-82
2020/12/01 00:26:21;;;;;;;;;;;-0.20;99.90;;;;;;5112730;28;19915;-81
2020/12/01 00:28:47;;;;;;;;;;;-0.10;99.90;;;;;;5108289;28;20269;-79
2020/12/01 00:31:13;;;;;;;;;;;-0.10;99.90;;;;;;5092350;28;20383;-78
2020/12/01 00:33:39;;;;;;;;;;;0.00;99.90;;;;;;5092530;28;19970;-80
2020/12/01 00:36:05;;;;;;;;;;;0.00;99.90;;;;;;5093528;28;19967;-81
2020/12/01 00:38:30;;;;;;;;;;;0.10;99.90;;;;;;5093660;28;19912;-81
2020/12/01 00:40:56;;;;;;;;;;;0.10;99.90;;;;;;5092854;28;19908;-81
2020/12/01 00:43:22;;;;;;;;;;;0.10;99.90;;;;;;5092290;28;19908;-82
2020/12/01 00:45:47;;;;;;;;;;;0.10;99.90;;;;;;5092111;28;19912;-80
2020/12/01 00:48:13;;;;;;;;;;;0.20;99.90;;;;;;5092480;28;19904;-81
2020/12/01 00:50:39;;;;;;;;;;;0.20;99.90;;;;;;5091865;28;19919;-80
2020/12/01 00:53:05;;;;;;;;;;;0.20;99.90;;;;;;5093937;28;19912;-81
2020/12/01 00:55:33;;;;;;;;;;;0.30;99.90;;;;;;5092475;28;20255;-81
2020/12/01 00:57:58;;;;;;;;;;;0.30;99.90;;;;;;5093522;28;19904;-80
2020/12/01 01:00:26;;;;;;;;;;;0.40;99.90;;;;;;5091964;28;19930;-80
2020/12/01 01:02:54;;;;;;;;;;;0.40;99.90;;;;;;5092470;28;19958;-79
2020/12/01 01:05:22;;;;;;;;;;;0.40;99.90;;;;;;5092518;28;20358;-80
2020/12/01 01:07:50;;;;;;;;;;;0.40;99.90;;;;;;5092339;28;20355;-79
2020/12/01 01:10:20;;;;;;;;;;;0.40;99.90;;;;;;5092017;28;20317;-79
2020/12/01 01:12:45;;;;;;;;;;;0.40;99.90;;;;;;5092241;28;19915;-78
2020/12/01 01:15:11;;;;;;;;;;;0.50;99.90;;;;;;5093305;28;20276;-79
2020/12/01 01:17:37;;;;;;;;;;;0.60;99.90;;;;;;5091701;28;19912;-80
2020/12/01 01:20:05;;;;;;;;;;;0.60;99.90;;;;;;5091902;28;20010;-78
2020/12/01 01:22:33;;;;;;;;;;;0.60;99.90;;;;;;5092307;28;19904;-81
2020/12/01 01:24:59;;;;;;;;;;;0.70;99.90;;;;;;5092669;28;19951;-81
2020/12/01 01:27:27;;;;;;;;;;;0.70;99.90;;;;;;5092313;28;19947;-81
2020/12/01 01:29:54;;;;;;;;;;;0.80;99.90;;;;;;5105342;28;20244;-80
2020/12/01 01:32:22;;;;;;;;;;;0.70;99.90;;;;;;5112360;28;20354;-82
2020/12/01 01:34:48;;;;;;;;;;;0.80;99.90;;;;;;5100858;28;19957;-80
2020/12/01 01:37:16;;;;;;;;;;;0.80;99.90;;;;;;5091788;28;19920;-80
2020/12/01 01:39:41;;;;;;;;;;;0.80;99.90;;;;;;5093755;28;19911;-82
2020/12/01 01:42:07;;;;;;;;;;;0.70;99.90;;;;;;5092105;28;19908;-80
2020/12/01 01:44:33;;;;;;;;;;;0.70;99.90;;;;;;5092303;28;19908;-80
2020/12/01 01:47:02;;;;;;;;;;;0.70;99.90;;;;;;5091653;28;19908;-81
2020/12/01 01:49:34;;;;;;;;;;;0.70;99.90;;;;;;5091990;28;19908;-79
2020/12/01 01:51:59;;;;;;;;;;;0.70;99.90;;;;;;5091927;28;19908;-84
2020/12/01 01:54:29;;;;;;;;;;;0.70;99.90;;;;;;5091621;28;19957;-81
2020/12/01 01:56:58;;;;;;;;;;;0.70;99.90;;;;;;5091627;28;20258;-80
2020/12/01 01:59:27;;;;;;;;;;;0.70;99.90;;;;;;5091444;28;19996;-81
2020/12/01 02:01:53;;;;;;;;;;;0.70;99.90;;;;;;5093056;28;19908;-79
2020/12/01 02:04:19;;;;;;;;;;;0.70;99.90;;;;;;5092861;28;19915;-80
2020/12/01 02:06:49;;;;;;;;;;;0.70;99.90;;;;;;5092831;28;19908;-81
2020/12/01 02:09:14;;;;;;;;;;;0.70;99.90;;;;;;5091645;28;19907;-81
2020/12/01 02:11:43;;;;;;;;;;;0.70;99.90;;;;;;5091043;28;20042;-81
2020/12/01 02:14:18;;;;;;;;;;;0.70;99.90;;;;;;5090683;28;20295;-81
2020/12/01 02:16:46;;;;;;;;;;;0.80;99.90;;;;;;5091027;28;19911;-79
2020/12/01 02:19:16;;;;;;;;;;;0.70;99.90;;;;;;5091485;28;19984;-81
2020/12/01 02:21:42;;;;;;;;;;;0.80;99.90;;;;;;5091352;28;19908;-79
2020/12/01 02:24:11;;;;;;;;;;;0.80;99.90;;;;;;5092326;28;19923;-81
2020/12/01 02:26:37;;;;;;;;;;;0.80;99.90;;;;;;5091092;28;19993;-79
2020/12/01 02:29:05;;;;;;;;;;;0.80;99.90;;;;;;5091013;28;19930;-83
2020/12/01 02:31:33;;;;;;;;;;;0.80;99.90;;;;;;5090932;28;19919;-82
2020/12/01 02:34:01;;;;;;;;;;;0.80;99.90;;;;;;5091160;28;19994;-80
2020/12/01 02:36:29;;;;;;;;;;;0.80;99.90;;;;;;5090814;28;19920;-80
2020/12/01 02:38:54;;;;;;;;;;;0.80;99.90;;;;;;5091002;28;19908;-81
2020/12/01 02:41:22;;;;;;;;;;;0.80;99.90;;;;;;5090921;28;20258;-82
2020/12/01 02:43:48;;;;;;;;;;;0.80;99.90;;;;;;5091167;28;19904;-81
2020/12/01 02:46:13;;;;;;;;;;;0.80;99.90;;;;;;5090946;28;19908;-85
2020/12/01 02:48:41;;;;;;;;;;;0.80;99.90;;;;;;5091500;28;19954;-82
2020/12/01 02:51:07;;;;;;;;;;;0.80;99.90;;;;;;5091333;28;20010;-81
2020/12/01 02:53:32;;;;;;;;;;;0.80;99.90;;;;;;5090945;28;20278;-84
2020/12/01 02:55:58;;;;;;;;;;;0.90;99.90;;;;;;5091345;28;20014;-81
2020/12/01 02:58:23;;;;;;;;;;;0.90;99.90;;;;;;5091199;28;19955;-83
2020/12/01 03:00:49;;;;;;;;;;;0.90;99.90;;;;;;5090676;28;19908;-82
2020/12/01 03:03:14;;;;;;;;;;;0.90;99.90;;;;;;5091271;28;19916;-81
2020/12/01 03:05:42;;;;;;;;;;;0.90;99.90;;;;;;5090930;28;19915;-83
2020/12/01 03:08:07;;;;;;;;;;;1.00;99.90;;;;;;5091193;28;20267;-86
2020/12/01 03:10:33;;;;;;;;;;;0.90;99.90;;;;;;5091126;28;19919;-83
2020/12/01 03:12:58;;;;;;;;;;;1.00;99.90;;;;;;5090692;28;20400;-82
2020/12/01 03:15:24;;;;;;;;;;;1.00;99.90;;;;;;5092095;28;19908;-82
2020/12/01 03:17:50;;;;;;;;;;;1.00;99.90;;;;;;5090781;28;19904;-87
2020/12/01 03:20:18;;;;;;;;;;;1.00;99.90;;;;;;5091995;28;19951;-82
2020/12/01 03:22:43;;;;;;;;;;;1.10;99.90;;;;;;5092527;28;19915;-84
2020/12/01 03:25:09;;;;;;;;;;;1.00;99.90;;;;;;5090615;28;19908;-83
2020/12/01 03:27:40;;;;;;;;;;;1.00;99.90;;;;;;5091010;28;20232;-85
2020/12/01 03:30:06;;;;;;;;;;;1.00;99.90;;;;;;5106225;28;19910;-83
2020/12/01 03:32:34;;;;;;;;;;;1.10;99.90;;;;;;5110986;28;19918;-84
2020/12/01 03:35:02;;;;;;;;;;;1.10;99.90;;;;;;5111019;28;19915;-86
2020/12/01 03:37:28;;;;;;;;;;;1.20;99.90;;;;;;5110786;28;20009;-84
2020/12/01 03:39:56;;;;;;;;;;;1.20;99.90;;;;;;5111055;28;20502;-83
2020/12/01 03:42:23;;;;;;;;;;;1.20;99.90;;;;;;5111157;28;20251;-84
2020/12/01 03:44:51;;;;;;;;;;;1.20;99.90;;;;;;5110788;28;19908;-84
2020/12/01 03:47:17;;;;;;;;;;;1.20;99.90;;;;;;5110572;28;19912;-85
2020/12/01 03:49:42;;;;;;;;;;;1.20;99.90;;;;;;5112549;27;19934;-84
2020/12/01 03:52:13;;;;;;;;;;;1.20;99.90;;;;;;5110301;28;19908;-85
2020/12/01 03:54:38;;;;;;;;;;;1.20;99.90;;;;;;5110764;28;19908;-84
2020/12/01 03:57:06;;;;;;;;;;;1.20;99.90;;;;;;5110732;28;19961;-84
2020/12/01 03:59:34;;;;;;;;;;;1.20;99.90;;;;;;5110820;28;19907;-83
2020/12/01 04:02:01;;;;;;;;;;;1.20;99.90;;;;;;5110107;28;20408;-85
2020/12/01 04:04:28;;;;;;;;;;;1.20;99.90;;;;;;5110127;28;19912;-83
2020/12/01 04:07:00;;;;;;;;;;;1.20;99.90;;;;;;5110744;28;19960;-85
2020/12/01 04:09:25;;;;;;;;;;;1.20;99.90;;;;;;5110939;28;19908;-84
2020/12/01 04:11:53;;;;;;;;;;;1.20;99.90;;;;;;5110845;28;20331;-83
2020/12/01 04:14:19;;;;;;;;;;;1.20;99.90;;;;;;5110728;28;19915;-88
2020/12/01 04:16:45;;;;;;;;;;;1.20;99.90;;;;;;5110623;28;20361;-83
2020/12/01 04:19:13;;;;;;;;;;;1.20;99.90;;;;;;5110512;28;19969;-86
2020/12/01 04:21:39;;;;;;;;;;;1.20;99.90;;;;;;5110513;28;19908;-84
2020/12/01 04:24:05;;;;;;;;;;;1.20;99.90;;;;;;5110468;28;19908;-85
2020/12/01 04:26:30;;;;;;;;;;;1.20;99.90;;;;;;5110481;28;19972;-83
2020/12/01 04:28:56;;;;;;;;;;;1.20;99.90;;;;;;5104617;28;20030;-84
2020/12/01 04:31:21;;;;;;;;;;;1.20;99.90;;;;;;5089738;28;19908;-85
2020/12/01 04:33:50;;;;;;;;;;;1.20;99.90;;;;;;5090192;28;20406;-85
2020/12/01 04:36:18;;;;;;;;;;;1.20;99.90;;;;;;5089987;28;20504;-83
2020/12/01 04:38:46;;;;;;;;;;;1.20;99.90;;;;;;5089970;28;19918;-85
2020/12/01 04:41:16;;;;;;;;;;;1.20;99.90;;;;;;5089935;28;19908;-85
2020/12/01 04:43:46;;;;;;;;;;;1.10;99.90;;;;;;5089732;28;20367;-83
2020/12/01 04:46:13;;;;;;;;;;;1.20;99.90;;;;;;5089559;28;19909;-83
2020/12/01 04:48:46;;;;;;;;;;;1.20;99.90;;;;;;5089895;28;20410;-85
2020/12/01 04:51:35;;;;;;;;;;;1.20;99.90;;;;;;5090958;28;19924;-84
2020/12/01 04:54:20;;;;;;;;;;;1.20;99.90;;;;;;5067521;28;20302;-85
2020/12/01 04:56:54;;;;;;;;;;;1.20;99.90;;;;;;5088493;28;19915;-83
2020/12/01 04:59:42;;;;;;;;;;;1.20;99.90;;;;;;5090115;28;20382;-84
2020/12/01 05:02:27;;;;;;;;;;;1.20;99.90;;;;;;5070449;28;20369;-83
2020/12/01 05:04:52;;;;;;;;;;;1.20;99.90;;;;;;5088963;28;19979;-84
2020/12/01 05:07:47;;;;;;;;;;;1.20;99.90;;;;;;5096509;28;20666;-83
2020/12/01 05:10:16;;;;;;;;;;;1.20;99.90;;;;;;5114627;28;19913;-86
2020/12/01 05:12:44;;;;;;;;;;;1.20;99.90;;;;;;5096039;28;19912;-85
2020/12/01 05:15:22;;;;;;;;;;;1.20;99.90;;;;;;5114273;28;19919;-87
2020/12/01 05:18:00;;;;;;;;;;;1.20;99.90;;;;;;5096059;28;19984;-86
2020/12/01 05:20:25;;;;;;;;;;;1.20;99.90;;;;;;5096166;28;19907;-86
2020/12/01 05:22:53;;;;;;;;;;;1.20;99.90;;;;;;5096349;28;20253;-85
2020/12/01 05:25:23;;;;;;;;;;;1.20;99.90;;;;;;5095936;28;19908;-85
2020/12/01 05:27:49;;;;;;;;;;;1.20;99.90;;;;;;5096200;28;19908;-87
2020/12/01 05:30:22;;;;;;;;;;;1.20;99.90;;;;;;5096656;28;19961;-85
2020/12/01 05:32:56;;;;;;;;;;;1.20;99.90;;;;;;5114394;28;19953;-86
2020/12/01 05:35:25;;;;;;;;;;;1.20;99.90;;;;;;5096166;28;20341;-87
2020/12/01 05:37:51;;;;;;;;;;;1.20;99.90;;;;;;5096311;28;19959;-82
2020/12/01 05:40:17;;;;;;;;;;;1.20;99.90;;;;;;5095741;28;19919;-83
2020/12/01 05:42:43;;;;;;;;;;;1.20;99.90;;;;;;5095930;28;19916;-82
2020/12/01 05:45:18;;;;;;;;;;;1.20;99.90;;;;;;5096034;28;19908;-83
2020/12/01 05:47:46;;;;;;;;;;;1.20;99.90;;;;;;5092560;28;20366;-84
2020/12/01 05:50:22;;;;;;;;;;;1.20;99.90;;;;;;5092582;28;20408;-83
2020/12/01 05:52:52;;;;;;;;;;;1.20;99.90;;;;;;5091992;28;20347;-85
2020/12/01 05:55:23;;;;;;;;;;;1.20;99.90;;;;;;5094434;28;19958;-86
2020/12/01 05:58:00;;;;;;;;;;;1.20;99.90;;;;;;5094062;28;19961;-87
2020/12/01 06:00:30;;;;;;;;;;;1.20;99.90;;;;;;5094066;28;19915;-84
2020/12/01 06:03:08;;;;;;;;;;;1.20;99.90;;;;;;5103698;28;19927;-85
2020/12/01 06:05:36;;;;;;;;;;;1.20;99.90;;;;;;5090898;28;19928;-84
2020/12/01 06:08:05;;;;;;;;;;;1.20;99.90;;;;;;5091918;28;19959;-85
2020/12/01 06:10:34;;;;;;;;;;;1.20;99.90;;;;;;5093094;28;19912;-84
2020/12/01 06:12:59;;;;;;;;;;;1.20;99.90;;;;;;5103467;28;19912;-85
2020/12/01 06:15:25;;;;;;;;;;;1.20;99.90;;;;;;5093796;28;19961;-84
2020/12/01 06:18:00;;;;;;;;;;;1.20;99.90;;;;;;5102050;28;19910;-83
2020/12/01 06:20:33;;;;;;;;;;;1.20;99.90;;;;;;5091619;28;19931;-83
2020/12/01 06:23:02;;;;;;;;;;;1.20;99.90;;;;;;5091752;28;19958;-83
2020/12/01 06:25:46;;;;;;;;;;;1.20;99.90;;;;;;5089050;28;19985;-83
2020/12/01 06:28:18;;;;;;;;;;;1.20;99.90;;;;;;5083213;28;19908;-83
2020/12/01 06:30:55;;;;;;;;;;;1.20;99.90;;;;;;5091372;28;19919;-83
2020/12/01 06:33:20;;;;;;;;;;;1.20;99.90;;;;;;5091182;28;19916;-84
2020/12/01 06:36:20;;;;;;;;;;;1.20;99.90;;;;;;5090760;28;19924;-83
2020/12/01 06:39:04;;;;;;;;;;;1.20;99.90;;;;;;5092549;28;20188;-81
2020/12/01 06:41:35;;;;;;;;;;;1.30;99.90;;;;;;5091933;28;20340;-84
2020/12/01 06:44:01;;;;;;;;;;;1.20;99.90;;;;;;5092441;28;20079;-84
2020/12/01 06:46:30;;;;;;;;;;;1.20;99.90;;;;;;5090806;28;20003;-83
2020/12/01 06:48:55;;;;;;;;;;;1.20;99.90;;;;;;5090675;28;20348;-84
2020/12/01 06:51:22;;;;;;;;;;;1.20;99.90;;;;;;5090836;28;19978;-82
2020/12/01 06:53:47;;;;;;;;;;;1.30;99.90;;;;;;5090760;28;19955;-82
2020/12/01 06:56:14;;;;;;;;;;;1.20;99.90;;;;;;5091583;28;19978;-81
2020/12/01 06:58:41;;;;;;;;;;;1.30;99.90;;;;;;5093183;28;19953;-82
2020/12/01 07:01:08;;;;;;;;;;;1.30;99.90;;;;;;5092551;28;19911;-83
2020/12/01 07:03:34;;;;;;;;;;;1.30;99.90;;;;;;5093455;28;19907;-82
2020/12/01 07:06:29;;;;;;;;;;;1.30;99.90;;;;;;5093508;28;19907;-83
2020/12/01 07:09:15;;;;;;;;;;;1.30;99.90;;;;;;5097852;28;19908;-82
2020/12/01 07:11:53;;;;;;;;;;;1.30;99.90;;;;;;5093560;28;19912;-84
2020/12/01 07:14:22;;;;;;;;;;;1.30;99.90;;;;;;5094072;28;19912;-82
2020/12/01 07:16:48;;;;;;;;;;;1.30;99.90;;;;;;5093499;28;19951;-81
2020/12/01 07:19:14;;;;;;;;;;;1.30;99.90;;;;;;5093437;28;19908;-83
2020/12/01 07:21:45;;;;;;;;;;;1.30;99.90;;;;;;5093507;28;20335;-83
2020/12/01 07:24:11;;;;;;;;;;;1.30;99.90;;;;;;5092972;28;19915;-83
2020/12/01 07:26:57;;;;;;;;;;;1.30;99.90;;;;;;5092775;28;19920;-84
2020/12/01 07:29:43;;;;;;;;;;;1.30;99.90;;;;;;5093189;28;19908;-83
2020/12/01 07:32:18;;;;;;;;;;;1.40;99.90;;;;;;5092331;28;19908;-84
2020/12/01 07:34:48;;;;;;;;;;;1.30;99.90;;;;;;5110951;28;19918;-85
2020/12/01 07:37:33;;;;;;;;;;;1.30;99.90;;;;;;5092492;28;19920;-83
2020/12/01 07:40:01;;;;;;;;;;;1.30;99.90;;;;;;5093349;28;20000;-83
2020/12/01 07:42:29;;;;;;;;;;;1.30;99.90;;;;;;5111407;28;19919;-83
2020/12/01 07:44:56;;;;;;;;;;;1.30;99.90;;;;;;5093003;28;19930;-81
2020/12/01 07:47:23;;;;;;;;;;;1.30;99.90;;;;;;5092519;28;19908;-84
2020/12/01 07:50:03;;;;;;;;;;;1.40;99.90;;;;;;5092930;28;20052;-83
2020/12/01 07:52:48;;;;;;;;;;;1.40;99.90;;;;;;5093011;28;19916;-83
2020/12/01 07:55:32;;;;;;;;;;;1.40;99.90;;;;;;5092867;28;20351;-83
2020/12/01 07:57:59;;;;;;;;;;;1.40;99.90;;;;;;5092245;28;19908;-84
2020/12/01 08:00:27;;;;;;;;;;;1.40;99.90;;;;;;5092577;28;20011;-83
2020/12/01 08:03:05;;;;;;;;;;;1.40;99.90;;;;;;5092540;28;19953;-83
2020/12/01 08:05:31;;;;;;;;;;;1.40;99.90;;;;;;5092502;28;20222;-84
2020/12/01 08:07:57;;;;;;;;;;;1.40;99.90;;;;;;5110966;28;20334;-84
2020/12/01 08:10:23;;;;;;;;;;;1.40;99.90;;;;;;5110891;28;19955;-83
2020/12/01 08:12:51;;;;;;;;;;;1.40;99.90;;;;;;5092319;28;19955;-84
2020/12/01 08:15:20;;;;;;;;;;;1.50;99.90;;;;;;5110787;28;20015;-83
2020/12/01 08:17:46;;;;;;;;;;;1.50;99.90;;;;;;5092623;28;19911;-83
2020/12/01 08:20:13;;;;;;;;;;;1.40;99.90;;;;;;5091934;28;19907;-83
2020/12/01 08:22:39;;;;;;;;;;;1.50;99.90;;;;;;5110677;28;19908;-84
2020/12/01 08:25:07;;;;;;;;;;;1.50;99.90;;;;;;5092216;28;19903;-83
2020/12/01 08:27:42;;;;;;;;;;;1.50;99.90;;;;;;5090578;28;19935;-83
2020/12/01 08:30:10;;;;;;;;;;;1.50;99.90;;;;;;5091070;28;19908;-86
2020/12/01 08:32:45;;;;;;;;;;;1.50;99.90;;;;;;5089304;28;19919;-84
2020/12/01 08:35:17;;;;;;;;;;;1.40;99.90;;;;;;5087592;28;19908;-84
2020/12/01 08:37:46;;;;;;;;;;;1.50;99.90;;;;;;5100618;28;20048;-85
2020/12/01 08:40:18;;;;;;;;;;;1.50;99.90;;;;;;5093767;28;19950;-82
2020/12/01 08:42:49;;;;;;;;;;;1.50;99.90;;;;;;5092132;28;19908;-83
2020/12/01 08:45:15;;;;;;;;;;;1.50;99.90;;;;;;5094573;28;20321;-83
2020/12/01 08:47:42;;;;;;;;;;;1.50;99.90;;;;;;5095211;28;20055;-85
2020/12/01 08:50:12;;;;;;;;;;;1.60;99.90;;;;;;5092460;28;19931;-84
2020/12/01 08:52:42;;;;;;;;;;;1.60;99.90;;;;;;5092364;28;19912;-84
2020/12/01 08:55:28;;;;;;;;;;;1.60;99.90;;;;;;5092828;28;19968;-84
2020/12/01 08:58:16;;;;;;;;;;;1.60;99.90;;;;;;5092759;28;20003;-84
2020/12/01 09:00:56;;;;;;;;;;;1.60;99.90;;;;;;5095889;28;20002;-84
2020/12/01 09:03:24;;;;;;;;;;;1.60;99.90;;;;;;5095960;28;19918;-85
2020/12/01 09:05:52;;;;;;;;;;;1.60;99.90;;;;;;5096078;28;19904;-84
2020/12/01 09:10:49;;;;;;;;;;;1.70;99.90;;;;;;5114157;28;19912;-84
2020/12/01 09:13:29;;;;;;;;;;;1.70;99.90;;;;;;5096010;28;19912;-84
2020/12/01 09:16:18;;;;;;;;;;;1.70;99.90;;;;;;5095801;28;20018;-84
2020/12/01 09:19:13;;;;;;;;;;;1.70;99.90;;;;;;5095579;28;19907;-83
2020/12/01 09:21:53;;;;;;;;;;;1.80;99.90;;;;;;5113285;28;19908;-85
2020/12/01 09:24:22;;;;;;;;;;;1.80;99.90;;;;;;5095622;28;19908;-84
2020/12/01 09:27:07;;;;;;;;;;;1.80;99.90;;;;;;5095257;28;19915;-85
2020/12/01 09:29:33;;;;;;;;;;;1.80;99.90;;;;;;5113153;28;19960;-82
2020/12/01 09:31:59;;;;;;;;;;;1.80;99.90;;;;;;5095233;28;20349;-85
2020/12/01 09:34:29;;;;;;;;;;;1.90;99.90;;;;;;5095406;28;19911;-84
2020/12/01 09:36:58;;;;;;;;;;;1.90;99.90;;;;;;5095591;28;20024;-84
2020/12/01 09:39:25;;;;;;;;;;;1.90;99.90;;;;;;5095572;28;20220;-85
2020/12/01 09:42:07;;;;;;;;;;;1.90;99.90;;;;;;5095139;28;20266;-82
2020/12/01 09:44:51;;;;;;;;;;;1.90;99.90;;;;;;5095069;28;20275;-84
2020/12/01 09:47:36;;;;;;;;;;;1.90;99.90;;;;;;5096662;28;19912;-84
2020/12/01 09:50:06;;;;;;;;;;;1.90;99.90;;;;;;5092680;28;19907;-84
2020/12/01 09:53:15;;;;;;;;;;;2.00;99.90;;;;;;5094746;28;19915;-85
2020/12/01 09:58:53;;;;;;;;;;;2.00;99.90;;;;;;5077617;28;19960;-84
2020/12/01 10:09:23;;;;;;;;;;;2.10;99.90;;;;;;5113244;28;19914;-85
2020/12/01 10:17:47;;;;;;;;;;;2.10;99.90;;;;;;5112999;28;19915;-84
2020/12/01 10:25:54;;;;;;;;;;;2.10;99.90;;;;;;5113018;28;19973;-84
2020/12/01 10:36:03;;;;;;;;;;;2.10;99.90;;;;;;5112153;28;19927;-85
2020/12/01 10:38:29;;;;;;;;;;;2.10;99.90;;;;;;5111092;28;19911;-83
2020/12/01 10:40:55;;;;;;;;;;;2.10;99.90;;;;;;5110851;28;19908;-83
2020/12/01 10:43:21;;;;;;;;;;;2.10;99.90;;;;;;5110980;28;19914;-86
2020/12/01 10:45:49;;;;;;;;;;;2.10;99.90;;;;;;5111521;28;19911;-84
2020/12/01 10:48:15;;;;;;;;;;;2.10;99.90;;;;;;5111000;28;19991;-82
2020/12/01 10:50:41;;;;;;;;;;;2.20;99.90;;;;;;5098756;28;20010;-86
2020/12/01 10:53:06;;;;;;;;;;;2.20;99.90;;;;;;5096283;28;19975;-83
2020/12/01 10:55:32;;;;;;;;;;;2.20;99.90;;;;;;5095993;28;19938;-84
2020/12/01 10:58:05;;;;;;;;;;;2.20;99.90;;;;;;5096687;28;19908;-85
2020/12/01 11:00:33;;;;;;;;;;;2.20;99.90;;;;;;5096220;28;20414;-85
2020/12/01 11:02:59;;;;;;;;;;;2.10;99.90;;;;;;5095754;28;19911;-85
2020/12/01 11:05:26;;;;;;;;;;;2.20;99.90;;;;;;5096167;28;19960;-84
2020/12/01 11:07:54;;;;;;;;;;;2.20;99.90;;;;;;5095954;28;19907;-83
2020/12/01 11:10:20;;;;;;;;;;;2.20;99.90;;;;;;5091560;28;20010;-85
2020/12/01 11:12:45;;;;;;;;;;;2.20;99.90;;;;;;5089603;28;20011;-84
2020/12/01 11:15:11;;;;;;;;;;;2.20;99.90;;;;;;5089610;28;20041;-85
2020/12/01 11:17:37;;;;;;;;;;;2.20;99.90;;;;;;5089647;28;19927;-86
2020/12/01 11:20:03;;;;;;;;;;;2.30;99.90;;;;;;5090402;28;19998;-85
2020/12/01 11:22:29;;;;;;;;;;;2.30;99.90;;;;;;5086445;28;20012;-84
2020/12/01 11:24:54;;;;;;;;;;;2.30;99.90;;;;;;5089565;28;20002;-84
2020/12/01 11:27:20;;;;;;;;;;;2.30;99.90;;;;;;5089646;28;19912;-83
2020/12/01 11:29:46;;;;;;;;;;;2.30;99.90;;;;;;5102356;28;19918;-84
2020/12/01 11:32:11;;;;;;;;;;;2.30;99.90;;;;;;5109894;28;20049;-84
2020/12/01 11:34:37;;;;;;;;;;;2.30;99.90;;;;;;5109738;28;19955;-84
2020/12/01 11:37:03;;;;;;;;;;;2.40;99.90;;;;;;5109355;28;19927;-84
2020/12/01 11:39:28;;;;;;;;;;;2.40;99.90;;;;;;5109767;28;20298;-84
2020/12/01 11:41:54;;;;;;;;;;;2.40;99.90;;;;;;5109971;28;20418;-83
2020/12/01 11:44:22;;;;;;;;;;;2.40;99.90;;;;;;5098373;28;19935;-84
2020/12/01 11:46:48;;;;;;;;;;;2.40;99.90;;;;;;5090896;28;19912;-85
2020/12/01 11:49:14;;;;;;;;;;;2.40;99.90;;;;;;5089405;28;19919;-84
2020/12/01 11:51:41;;;;;;;;;;;2.40;99.90;;;;;;5089566;28;19966;-85
2020/12/01 11:54:08;;;;;;;;;;;2.40;99.90;;;;;;5088806;28;19916;-83
2020/12/01 11:56:34;;;;;;;;;;;2.40;99.90;;;;;;5089274;28;19913;-83
2020/12/01 11:59:00;;;;;;;;;;;2.40;99.90;;;;;;5089290;28;19912;-83
2020/12/01 13:08:49;;;;;;;;;;;2.60;99.90;;;;;;5085923;28;19927;-82
2020/12/01 13:11:15;;;;;;;;;;;2.60;99.90;;;;;;5071626;28;20454;-82
2020/12/01 13:13:41;;;;;;;;;;;2.60;99.90;;;;;;5070117;28;20010;-82
2020/12/01 13:31:35;;;;;;;;;;;2.50;99.90;;;;;;5102860;23;19934;-79
2020/12/01 13:34:01;;;;;;;;;;;2.50;99.90;;;;;;5091310;28;20306;-79
2020/12/01 13:36:27;;;;;;;;;;;2.50;99.90;;;;;;5105886;28;19912;-80
2020/12/01 13:38:52;;;;;;;;;;;2.50;99.90;;;;;;5112251;28;19908;-80
2020/12/01 13:41:18;;;;;;;;;;;2.50;99.90;;;;;;5111739;28;19912;-81
2020/12/01 13:43:44;;;;;;;;;;;2.50;99.90;;;;;;5107719;28;19958;-81
2020/12/01 13:46:09;;;;;;;;;;;2.50;99.90;;;;;;5093135;28;19957;-80
2020/12/01 13:48:35;;;;;;;;;;;2.50;99.90;;;;;;5093520;28;20328;-80
2020/12/01 13:51:03;;;;;;;;;;;2.40;99.90;;;;;;5091228;28;19997;-81
2020/12/01 13:53:29;;;;;;;;;;;2.40;99.90;;;;;;5091859;28;20374;-83
2020/12/01 13:55:55;;;;;;;;;;;2.40;99.90;;;;;;5091320;28;20196;-81
2020/12/01 13:58:20;;;;;;;;;;;2.40;99.90;;;;;;5092703;28;19919;-82
2020/12/01 14:00:46;;;;;;;;;;;2.40;99.90;;;;;;5093628;28;19912;-80
2020/12/01 14:03:14;;;;;;;;;;;2.40;99.90;;;;;;5091667;28;19919;-81
2020/12/01 14:05:40;;;;;;;;;;;2.40;99.90;;;;;;5091318;28;19943;-81
2020/12/01 14:08:06;;;;;;;;;;;2.40;99.90;;;;;;5091482;28;20025;-82
2020/12/01 14:10:33;;;;;;;;;;;2.40;99.90;;;;;;5090096;28;19912;-81
2020/12/01 14:12:59;;;;;;;;;;;2.40;99.90;;;;;;5103261;28;19918;-80
2020/12/01 14:15:25;;;;;;;;;;;2.40;99.90;;;;;;5111078;28;20351;-80
2020/12/01 14:17:51;;;;;;;;;;;2.30;99.90;;;;;;5092108;28;19912;-82
2020/12/01 14:20:18;;;;;;;;;;;2.30;99.90;;;;;;5089960;28;19924;-81
2020/12/01 14:22:44;;;;;;;;;;;2.30;99.90;;;;;;5095066;28;19912;-81
2020/12/01 14:25:10;;;;;;;;;;;2.40;99.90;;;;;;5089675;28;19912;-81
2020/12/01 14:27:37;;;;;;;;;;;2.30;99.90;;;;;;5090704;28;19981;-80
2020/12/01 14:30:05;;;;;;;;;;;2.30;99.90;;;;;;5089596;28;19969;-81
2020/12/01 14:32:31;;;;;;;;;;;2.40;99.90;;;;;;5090311;28;20020;-79
2020/12/01 14:34:57;;;;;;;;;;;2.30;99.90;;;;;;5089696;28;19962;-81
2020/12/01 14:37:26;;;;;;;;;;;2.30;99.90;;;;;;5096385;28;20422;-80
2020/12/01 14:39:52;;;;;;;;;;;2.30;99.90;;;;;;5110949;28;19945;-80
2020/12/01 14:42:20;;;;;;;;;;;2.30;99.90;;;;;;5110673;28;19912;-80
2020/12/01 14:44:50;;;;;;;;;;;2.30;99.90;;;;;;5110641;28;20399;-81
2020/12/01 14:47:35;;;;;;;;;;;2.30;99.90;;;;;;5110578;28;19912;-81
2020/12/01 14:50:11;;;;;;;;;;;2.30;99.90;;;;;;5110386;28;19916;-81
2020/12/01 16:32:50;;;;;;;;;;;2.20;99.90;;;;;;5042766;28;19929;-81
2020/12/01 16:35:16;;;;;;;;;;;2.20;99.90;;;;;;5048210;28;19920;-82
2020/12/01 16:37:48;;;;;;;;;;;2.20;99.90;;;;;;5031361;28;19913;-81
2020/12/01 16:40:19;;;;;;;;;;;2.20;99.90;;;;;;5031452;28;19913;-81
2020/12/01 16:42:47;;;;;;;;;;;2.10;99.90;;;;;;5031436;28;19966;-81
2020/12/01 16:45:15;;;;;;;;;;;2.20;99.90;;;;;;5031448;28;19967;-80
2020/12/01 16:48:03;;;;;;;;;;;2.20;99.90;;;;;;5031304;28;19908;-81
2020/12/01 16:50:39;;;;;;;;;;;2.20;99.90;;;;;;5031225;28;19919;-81
2020/12/01 16:53:23;;;;;;;;;;;2.20;99.90;;;;;;5031329;28;19913;-81
2020/12/01 16:56:01;;;;;;;;;;;2.20;99.90;;;;;;5031832;28;19917;-81
2020/12/01 16:58:36;;;;;;;;;;;2.20;99.90;;;;;;5032336;28;19920;-82
2020/12/01 17:01:14;;;;;;;;;;;2.20;99.90;;;;;;5035527;28;19912;-81
2020/12/01 17:04:09;;;;;;;;;;;2.20;99.90;;;;;;5035095;28;19917;-81
2020/12/01 17:06:40;;;;;;;;;;;2.20;99.90;;;;;;5034893;28;20000;-80
2020/12/01 17:09:05;;;;;;;;;;;2.20;99.90;;;;;;5034844;28;20007;-81
2020/12/01 17:11:39;;;;;;;;;;;2.20;99.90;;;;;;5034828;28;20352;-84
2020/12/01 17:14:10;;;;;;;;;;;2.20;99.90;;;;;;5034141;28;19948;-82
2020/12/01 17:16:39;;;;;;;;;;;2.20;99.90;;;;;;5034903;28;19944;-84
2020/12/01 17:19:04;;;;;;;;;;;2.20;99.90;;;;;;5035071;28;20456;-84
2020/12/01 17:21:30;;;;;;;;;;;2.20;99.90;;;;;;5034859;28;20011;-82
2020/12/01 17:23:57;;;;;;;;;;;2.20;99.90;;;;;;5034633;28;20260;-83
2020/12/01 17:26:24;;;;;;;;;;;2.10;99.90;;;;;;5034278;28;19916;-83
2020/12/01 17:29:00;;;;;;;;;;;2.10;99.90;;;;;;5035621;28;19990;-83
2020/12/01 17:31:28;;;;;;;;;;;2.10;99.90;;;;;;5034664;28;19924;-82
2020/12/01 17:34:06;;;;;;;;;;;2.10;99.90;;;;;;5037142;28;19925;-82
2020/12/01 17:36:48;;;;;;;;;;;2.10;99.90;;;;;;5013731;28;19971;-84
2020/12/01 17:39:13;;;;;;;;;;;2.10;99.90;;;;;;4995643;28;20000;-83
2020/12/01 17:42:05;;;;;;;;;;;2.10;99.90;;;;;;5000070;28;20020;-80
2020/12/01 17:44:35;;;;;;;;;;;2.10;99.90;;;;;;5010283;28;19999;-81
2020/12/01 17:47:07;;;;;;;;;;;2.10;99.90;;;;;;5011665;28;20115;-80
2020/12/01 17:49:35;;;;;;;;;;;2.10;99.90;;;;;;5011243;28;19913;-80
2020/12/01 17:52:03;;;;;;;;;;;2.10;99.90;;;;;;5013132;28;19925;-79
2020/12/01 17:54:29;;;;;;;;;;;2.10;99.90;;;;;;5013227;28;20006;-81
2020/12/01 17:56:56;;;;;;;;;;;2.10;99.90;;;;;;5012780;28;19964;-79
2020/12/01 17:59:24;;;;;;;;;;;2.20;99.90;;;;;;5013392;28;19917;-82
2020/12/01 18:01:50;;;;;;;;;;;2.10;99.90;;;;;;5012747;28;20283;-83
2020/12/01 18:04:16;;;;;;;;;;;2.10;99.90;;;;;;5003456;28;20305;-81
2020/12/01 18:06:42;;;;;;;;;;;2.10;99.90;;;;;;5003350;28;19959;-80
2020/12/01 18:09:10;;;;;;;;;;;2.10;99.90;;;;;;5001360;28;20358;-82
2020/12/01 18:11:51;;;;;;;;;;;2.10;99.90;;;;;;5006486;28;19928;-82
2020/12/01 18:14:31;;;;;;;;;;;2.10;99.90;;;;;;5004812;28;20221;-82
2020/12/01 18:17:09;;;;;;;;;;;2.10;99.90;;;;;;5010481;28;20075;-83
2020/12/01 18:20:02;;;;;;;;;;;2.10;99.90;;;;;;5023445;28;19909;-81